createdAt,value
2022-12-11T00:03:46.097Z,3.959866220735786
2022-12-11T00:10:16.555Z,3.62876254180602
2022-12-11T00:16:49.901Z,3.9297658862876252
2022-12-11T00:23:28.126Z,3.5150501672240804
2022-12-11T00:32:28.756Z,3.180602006688963
2022-12-11T00:46:26.314Z,4.277591973244147
2022-12-11T00:57:32.364Z,4.150501672240803
2022-12-11T01:06:32.033Z,3.117056856187291
2022-12-11T01:12:58.653Z,4.0602006688963215
2022-12-11T01:21:45.819Z,3.468227424749164
2022-12-11T01:32:48.723Z,3.8561872909698995
2022-12-11T01:39:13.015Z,3.1438127090301005
2022-12-11T01:45:40.128Z,3.1739130434782608
2022-12-11T01:52:05.128Z,4.0
2022-12-11T01:58:30.309Z,3.20066889632107
2022-12-11T02:06:13.108Z,2.6555183946488294
2022-12-11T02:14:49.677Z,3.6622073578595318
2022-12-11T02:21:14.435Z,4.096989966555184
2022-12-11T02:27:39.468Z,2.7123745819397995
2022-12-11T02:34:11.882Z,3.321070234113712
2022-12-11T02:40:38.955Z,3.899665551839465
2022-12-11T02:47:03.914Z,3.120401337792642
2022-12-11T02:53:29.004Z,3.317725752508361
2022-12-11T02:59:54.129Z,3.963210702341137
2022-12-11T03:15:22.590Z,3.6354515050167224
2022-12-11T03:29:29.969Z,3.25752508361204
2022-12-11T03:35:55.445Z,3.4581939799331103
2022-12-11T03:43:35.784Z,3.471571906354515
2022-12-11T03:50:14.011Z,3.4046822742474916
2022-12-11T03:56:39.531Z,2.9665551839464883
2022-12-11T04:03:13.019Z,3.100334448160535
2022-12-11T04:09:39.775Z,3.491638795986622
2022-12-11T04:16:06.391Z,3.963210702341137
2022-12-11T04:22:31.732Z,3.528428093645485
2022-12-11T04:28:57.480Z,3.6755852842809364
2022-12-11T04:35:24.776Z,3.160535117056856
2022-12-11T04:41:51.022Z,3.8060200668896322
2022-12-11T04:54:47.072Z,2.9866220735785953
2022-12-11T05:01:14.365Z,3.1939799331103678
2022-12-11T05:07:40.177Z,3.765886287625418
2022-12-11T05:14:06.091Z,4.575250836120401
2022-12-11T05:23:15.817Z,2.6421404682274248
2022-12-11T05:29:42.383Z,3.698996655518395
2022-12-11T05:36:08.890Z,3.939799331103679
2022-12-11T05:42:35.087Z,3.5384615384615383
2022-12-11T05:49:01.502Z,3.5250836120401337
2022-12-11T05:59:25.856Z,3.9096989966555182
2022-12-11T06:09:21.947Z,4.107023411371237
2022-12-11T06:15:48.311Z,4.224080267558528
2022-12-11T06:28:13.245Z,3.5250836120401337
2022-12-11T06:34:38.892Z,3.3846153846153846
2022-12-11T06:41:05.067Z,3.9063545150501673
2022-12-11T06:47:30.596Z,3.3812709030100336
2022-12-11T06:54:56.720Z,3.8896321070234112
2022-12-11T07:01:22.802Z,3.9899665551839463
2022-12-11T07:07:48.304Z,3.5050167224080266
2022-12-11T07:18:44.203Z,3.648829431438127
2022-12-11T07:25:13.671Z,2.5652173913043477
2022-12-11T07:32:31.792Z,3.709030100334448
2022-12-11T07:39:01.151Z,2.1438127090301005
2022-12-11T07:45:26.855Z,3.096989966555184
2022-12-11T07:51:52.072Z,3.431438127090301
2022-12-11T07:58:17.836Z,2.7859531772575252
2022-12-11T08:08:50.653Z,4.989966555183947
2022-12-11T08:15:29.801Z,2.919732441471572
2022-12-11T08:22:00.258Z,3.82943143812709
2022-12-11T08:28:35.928Z,3.210702341137124
2022-12-11T08:35:19.827Z,3.2073578595317724
2022-12-11T08:41:54.523Z,2.698996655518395
2022-12-11T08:48:29.171Z,4.237458193979933
2022-12-11T09:01:27.300Z,2.57190635451505
2022-12-11T09:08:34.791Z,3.9163879598662206
2022-12-11T09:21:29.889Z,5.68561872909699
2022-12-11T09:30:51.058Z,3.903010033444816
2022-12-11T09:37:23.448Z,4.1237458193979935
2022-12-11T09:44:25.783Z,5.193979933110368
2022-12-11T09:52:20.294Z,4.2675585284280935
2022-12-11T10:02:57.601Z,3.819397993311037
2022-12-11T10:09:27.175Z,3.688963210702341
2022-12-11T10:15:58.202Z,3.8561872909698995
2022-12-11T10:22:33.407Z,4.896321070234114
2022-12-11T10:34:03.841Z,3.7959866220735785
2022-12-11T10:40:34.615Z,3.698996655518395
2022-12-11T10:48:45.464Z,4.719063545150502
2022-12-11T10:55:11.331Z,4.260869565217392
2022-12-11T11:02:47.819Z,3.9264214046822743
2022-12-11T11:09:16.752Z,4.214046822742475
2022-12-11T11:15:44.918Z,4.662207357859532
2022-12-11T11:22:13.340Z,4.31438127090301
2022-12-11T11:46:32.856Z,6.080267558528428
2022-12-11T11:52:59.916Z,4.2441471571906355
2022-12-11T12:02:57.117Z,5.311036789297659
2022-12-11T12:09:25.706Z,5.501672240802676
2022-12-11T12:15:54.885Z,6.357859531772576
2022-12-11T12:24:50.263Z,5.765886287625418
2022-12-11T12:31:21.933Z,6.260869565217392
2022-12-11T12:37:49.645Z,6.254180602006689
2022-12-11T12:49:16.877Z,5.448160535117057
2022-12-11T12:58:58.316Z,5.290969899665551
2022-12-11T13:05:51.905Z,6.662207357859532
2022-12-11T13:17:00.886Z,7.394648829431438
2022-12-11T13:24:33.429Z,5.608695652173913
2022-12-11T13:34:17.755Z,7.066889632107023
2022-12-11T13:40:43.602Z,7.070234113712375
2022-12-11T13:47:10.825Z,7.581939799331104
2022-12-11T13:53:37.811Z,8.050167224080267
2022-12-11T14:00:06.025Z,6.37123745819398
2022-12-11T14:06:31.230Z,6.270903010033445
2022-12-11T14:12:57.757Z,7.0
2022-12-11T14:19:24.663Z,7.478260869565218
2022-12-11T14:25:50.455Z,7.471571906354515
2022-12-11T14:32:16.455Z,6.501672240802676
2022-12-11T14:43:35.320Z,9.22742474916388
2022-12-11T14:51:43.770Z,7.903010033444816
2022-12-11T14:58:10.340Z,7.39799331103679
2022-12-11T15:04:37.595Z,7.351170568561873
2022-12-11T15:13:31.451Z,8.357859531772576
2022-12-11T15:22:28.230Z,6.170568561872909
2022-12-11T15:28:53.549Z,6.418060200668896
2022-12-11T15:35:26.851Z,6.364548494983278
2022-12-11T15:42:56.472Z,6.892976588628763
2022-12-11T15:55:17.496Z,8.284280936454849
2022-12-11T16:01:42.591Z,6.361204013377926
2022-12-11T16:12:08.970Z,7.688963210702341
2022-12-11T16:25:07.487Z,8.45819397993311
2022-12-11T16:37:22.963Z,8.809364548494983
2022-12-11T16:43:48.988Z,8.377926421404682
2022-12-11T17:00:07.452Z,8.591973244147157
2022-12-11T17:08:03.877Z,8.672240802675585
2022-12-11T17:14:36.346Z,8.622073578595318
2022-12-11T17:21:03.225Z,9.869565217391305
2022-12-11T17:27:29.164Z,8.471571906354516
2022-12-11T17:33:55.479Z,8.096989966555183
2022-12-11T17:41:29.127Z,7.040133779264214
2022-12-11T17:47:54.303Z,8.876254180602007
2022-12-11T18:12:29.837Z,9.461538461538462
2022-12-11T18:19:10.438Z,11.17056856187291
2022-12-11T18:25:39.266Z,13.511705685618729
2022-12-11T18:32:08.518Z,15.705685618729097
2022-12-11T18:38:33.870Z,12.046822742474916
2022-12-11T18:44:59.789Z,9.528428093645484
2022-12-11T18:51:27.429Z,8.33779264214047
2022-12-11T18:57:56.827Z,10.535117056856187
2022-12-11T19:04:23.615Z,10.20401337792642
2022-12-11T19:10:49.394Z,10.421404682274247
2022-12-11T19:23:52.313Z,9.819397993311037
2022-12-11T19:30:22.730Z,11.003344481605351
2022-12-11T20:55:46.531Z,12.23076923076923
2022-12-11T21:06:36.421Z,12.545150501672241
2022-12-11T21:13:23.581Z,12.200668896321071
2022-12-11T21:23:07.013Z,10.494983277591974
2022-12-11T21:29:28.315Z,10.82943143812709
2022-12-11T21:35:49.663Z,11.615384615384615
2022-12-11T21:42:12.789Z,11.62876254180602
2022-12-11T21:48:35.545Z,12.147157190635452
2022-12-11T21:54:54.628Z,13.120401337792643
2022-12-11T22:01:18.585Z,11.528428093645484
2022-12-11T22:07:40.586Z,10.983277591973245
2022-12-11T22:18:35.325Z,14.003344481605351
2022-12-11T22:25:39.439Z,10.979933110367893
2022-12-11T22:34:56.098Z,9.57190635451505
2022-12-11T22:41:22.166Z,9.862876254180602
2022-12-11T22:47:42.531Z,11.461538461538462
2022-12-11T22:54:03.546Z,12.200668896321071
2022-12-11T23:00:24.419Z,11.003344481605351
2022-12-11T23:06:45.102Z,12.983277591973245
2022-12-11T23:18:31.796Z,9.799331103678929
2022-12-11T23:24:52.902Z,12.454849498327759
2022-12-11T23:34:24.663Z,11.488294314381271
2022-12-11T23:40:43.892Z,12.57190635451505
2022-12-11T23:50:54.098Z,12.364548494983278
